createdAt,value
2019-02-16T00:00:19.336Z,1014.18
2019-02-16T00:01:19.348Z,1014.19
2019-02-16T00:02:19.311Z,1014.19
2019-02-16T00:03:19.301Z,1014.21
2019-02-16T00:04:19.343Z,1014.15
2019-02-16T00:05:19.283Z,1014.12
2019-02-16T00:06:19.274Z,1014.12
2019-02-16T00:07:19.271Z,1014.12
2019-02-16T00:08:19.246Z,1014.17
2019-02-16T00:09:19.236Z,1014.17
2019-02-16T00:10:19.233Z,1014.09
2019-02-16T00:11:19.251Z,1014.14
2019-02-16T00:12:19.204Z,1014.16
2019-02-16T00:13:19.200Z,1014.08
2019-02-16T00:14:19.180Z,1014.10
2019-02-16T00:15:19.168Z,1014.09
2019-02-16T00:16:19.160Z,1014.10
2019-02-16T00:17:19.180Z,1014.10
2019-02-16T00:18:19.147Z,1014.09
2019-02-16T00:19:19.128Z,1014.12
2019-02-16T00:20:19.111Z,1014.09
2019-02-16T00:21:19.100Z,1014.14
2019-02-16T00:22:19.091Z,1014.05
2019-02-16T00:23:19.120Z,1014.10
2019-02-16T00:24:19.087Z,1014.14
2019-02-16T00:25:19.055Z,1014.14
2019-02-16T00:26:19.070Z,1014.12
2019-02-16T00:27:19.039Z,1014.12
2019-02-16T00:28:19.023Z,1014.13
2019-02-16T00:29:19.047Z,1014.11
2019-02-16T00:30:19.016Z,1014.14
2019-02-16T00:31:18.992Z,1014.08
2019-02-16T00:32:18.983Z,1014.09
2019-02-16T00:33:18.974Z,1014.12
2019-02-16T00:34:18.957Z,1014.06
2019-02-16T00:35:19.021Z,1014.02
2019-02-16T00:36:18.953Z,1014.10
2019-02-16T00:37:18.923Z,1014.06
2019-02-16T00:38:18.922Z,1014.03
2019-02-16T00:39:18.904Z,1014.03
2019-02-16T00:40:18.897Z,1014.04
2019-02-16T00:41:18.924Z,1013.98
2019-02-16T00:42:18.888Z,1013.99
2019-02-16T00:43:18.860Z,1014.00
2019-02-16T00:44:18.850Z,1014.07
2019-02-16T00:45:18.841Z,1014.04
2019-02-16T00:46:18.876Z,1014.03
2019-02-16T00:47:18.813Z,1013.99
2019-02-16T00:48:18.823Z,1013.99
2019-02-16T00:49:18.792Z,1014.03
2019-02-16T00:50:18.784Z,1014.03
2019-02-16T00:51:18.777Z,1014.01
2019-02-16T00:52:18.798Z,1014.05
2019-02-16T00:53:18.765Z,1014.03
2019-02-16T00:54:18.742Z,1014.05
2019-02-16T00:55:18.727Z,1014.00
2019-02-16T00:56:18.712Z,1014.07
2019-02-16T00:57:18.704Z,1014.03
2019-02-16T00:58:18.723Z,1014.05
2019-02-16T00:59:18.696Z,1014.01
2019-02-16T01:00:18.688Z,1014.02
2019-02-16T01:01:18.659Z,1014.05
2019-02-16T01:02:18.648Z,1014.02
2019-02-16T01:03:18.648Z,1014.03
2019-02-16T01:04:18.626Z,1014.05
2019-02-16T01:05:18.664Z,1014.04
2019-02-16T01:06:18.619Z,1013.98
2019-02-16T01:07:18.594Z,1014.03
2019-02-16T01:08:18.580Z,1014.03
2019-02-16T01:09:18.579Z,1014.01
2019-02-16T01:10:18.570Z,1013.94
2019-02-16T01:11:18.591Z,1013.95
2019-02-16T01:12:18.551Z,1013.96
2019-02-16T01:13:18.535Z,1013.94
2019-02-16T01:14:18.515Z,1013.95
2019-02-16T01:15:18.513Z,1013.94
2019-02-16T01:16:18.495Z,1013.94
2019-02-16T01:17:18.531Z,1013.90
2019-02-16T01:18:18.476Z,1013.90
2019-02-16T01:19:18.459Z,1013.87
2019-02-16T01:20:18.455Z,1013.88
2019-02-16T01:21:22.707Z,1013.83
2019-02-16T01:22:18.431Z,1013.82
2019-02-16T01:23:18.491Z,1013.79
2019-02-16T01:24:18.403Z,1013.82
2019-02-16T01:25:18.392Z,1013.83
2019-02-16T01:26:18.386Z,1013.75
2019-02-16T01:27:18.371Z,1013.80
2019-02-16T01:28:18.385Z,1013.73
2019-02-16T01:29:18.399Z,1013.76
2019-02-16T01:30:18.343Z,1013.73
2019-02-16T01:32:27.069Z,1013.72
2019-02-16T01:33:27.053Z,1013.69
2019-02-16T01:34:27.061Z,1013.69
2019-02-16T01:35:27.029Z,1013.68
2019-02-16T01:36:27.018Z,1013.67
2019-02-16T01:37:27.025Z,1013.66
2019-02-16T01:38:26.997Z,1013.62
2019-02-16T01:39:34.045Z,1013.60
2019-02-16T01:40:26.977Z,1013.58
2019-02-16T01:41:26.965Z,1013.63
2019-02-16T01:42:26.953Z,1013.59
2019-02-16T01:43:26.941Z,1013.58
2019-02-16T01:44:26.944Z,1013.56
2019-02-16T01:45:26.970Z,1013.56
2019-02-16T01:46:26.944Z,1013.58
2019-02-16T01:47:26.911Z,1013.52
2019-02-16T01:48:26.899Z,1013.54
2019-02-16T01:49:26.887Z,1013.53
2019-02-16T01:50:26.879Z,1013.49
2019-02-16T01:51:31.963Z,1013.49
2019-02-16T01:52:27.860Z,1013.47
2019-02-16T01:53:26.853Z,1013.49
2019-02-16T01:54:29.828Z,1013.49
2019-02-16T01:55:26.844Z,1013.54
2019-02-16T01:56:26.824Z,1013.50
2019-02-16T01:57:26.824Z,1013.53
2019-02-16T01:58:26.804Z,1013.51
2019-02-16T01:59:26.808Z,1013.47
2019-02-16T02:00:26.776Z,1013.51
2019-02-16T02:01:26.780Z,1013.47
2019-02-16T02:02:26.776Z,1013.42
2019-02-16T02:03:26.756Z,1013.41
2019-02-16T02:04:26.733Z,1013.44
2019-02-16T02:05:26.726Z,1013.45
2019-02-16T02:06:26.722Z,1013.44
2019-02-16T02:07:26.704Z,1013.43
2019-02-16T02:08:26.708Z,1013.41
2019-02-16T02:09:26.692Z,1013.39
2019-02-16T02:10:26.668Z,1013.38
2019-02-16T02:11:26.660Z,1013.38
2019-02-16T02:12:26.644Z,1013.37
2019-02-16T02:13:26.636Z,1013.38
2019-02-16T02:14:26.640Z,1013.34
2019-02-16T02:15:26.619Z,1013.34
2019-02-16T02:16:26.612Z,1013.33
2019-02-16T02:17:26.592Z,1013.35
2019-02-16T02:18:26.580Z,1013.30
2019-02-16T02:19:26.579Z,1013.35
2019-02-16T02:20:26.580Z,1013.30
2019-02-16T02:21:26.548Z,1013.28
2019-02-16T02:22:26.536Z,1013.24
2019-02-16T02:23:26.544Z,1013.25
2019-02-16T02:24:26.512Z,1013.27
2019-02-16T02:25:26.504Z,1013.29
2019-02-16T02:26:26.504Z,1013.25
2019-02-16T02:27:26.480Z,1013.26
2019-02-16T02:28:26.469Z,1013.30
2019-02-16T02:29:26.456Z,1013.33
2019-02-16T02:30:26.457Z,1013.33
2019-02-16T02:31:26.455Z,1013.34
2019-02-16T02:32:26.434Z,1013.30
2019-02-16T02:33:26.446Z,1013.32
2019-02-16T02:34:26.416Z,1013.28
2019-02-16T02:35:26.393Z,1013.28
2019-02-16T02:36:26.384Z,1013.31
2019-02-16T02:37:26.400Z,1013.28
2019-02-16T02:38:26.360Z,1013.25
2019-02-16T02:39:26.348Z,1013.25
2019-02-16T02:40:26.336Z,1013.19
2019-02-16T02:41:26.325Z,1013.16
2019-02-16T02:42:26.312Z,1013.15
2019-02-16T02:43:34.864Z,1013.22
2019-02-16T02:44:26.292Z,1013.14
2019-02-16T02:45:26.281Z,1013.13
2019-02-16T02:46:26.280Z,1013.15
2019-02-16T02:47:26.261Z,1013.12
2019-02-16T02:48:26.264Z,1013.09
2019-02-16T02:49:26.257Z,1013.07
2019-02-16T02:50:26.228Z,1013.04
2019-02-16T02:51:26.216Z,1012.99
2019-02-16T02:52:26.214Z,1013.04
2019-02-16T02:53:33.756Z,1013.02
2019-02-16T02:54:26.180Z,1013.03
2019-02-16T02:55:26.172Z,1013.00
2019-02-16T02:56:26.161Z,1012.98
2019-02-16T02:57:26.154Z,1013.01
2019-02-16T02:58:26.136Z,1012.97
2019-02-16T02:59:26.142Z,1012.94
2019-02-16T03:00:26.133Z,1012.97
2019-02-16T03:01:26.114Z,1012.94
2019-02-16T03:02:26.093Z,1012.93
2019-02-16T03:03:26.080Z,1012.90
2019-02-16T03:04:26.072Z,1012.94
2019-02-16T03:05:26.065Z,1012.94
2019-02-16T03:06:26.072Z,1012.94
2019-02-16T03:07:26.044Z,1012.98
2019-02-16T03:08:26.032Z,1012.94
2019-02-16T03:09:26.052Z,1012.91
2019-02-16T03:10:26.008Z,1012.93
2019-02-16T03:11:25.998Z,1012.89
2019-02-16T03:12:26.004Z,1012.88
2019-02-16T03:13:25.972Z,1012.91
2019-02-16T03:14:25.961Z,1012.82
2019-02-16T03:15:25.949Z,1012.87
2019-02-16T03:16:26.250Z,1012.89
2019-02-16T03:17:25.950Z,1012.89
2019-02-16T03:18:25.924Z,1012.86
2019-02-16T03:19:25.918Z,1012.91
2019-02-16T03:20:25.900Z,1012.93
2019-02-16T03:21:25.896Z,1012.89
2019-02-16T03:22:25.892Z,1012.95
2019-02-16T03:23:25.896Z,1012.90
2019-02-16T03:24:25.871Z,1012.88
2019-02-16T03:25:25.844Z,1012.91
2019-02-16T03:26:25.878Z,1012.87
2019-02-16T03:27:25.869Z,1012.86
2019-02-16T03:28:25.830Z,1012.77
2019-02-16T03:29:25.802Z,1012.78
2019-02-16T03:30:25.789Z,1012.77
2019-02-16T03:31:25.791Z,1012.80
2019-02-16T03:32:25.768Z,1012.81
2019-02-16T03:33:25.781Z,1012.77
2019-02-16T03:34:25.761Z,1012.75
2019-02-16T03:35:25.732Z,1012.75
2019-02-16T03:36:25.738Z,1012.72
2019-02-16T03:37:25.717Z,1012.72
2019-02-16T03:38:25.705Z,1012.73
2019-02-16T03:39:25.698Z,1012.72
2019-02-16T03:40:25.707Z,1012.71
2019-02-16T03:41:25.677Z,1012.75
2019-02-16T03:42:25.659Z,1012.74
2019-02-16T03:43:25.644Z,1012.74
2019-02-16T03:44:25.634Z,1012.76
2019-02-16T03:45:25.632Z,1012.76
2019-02-16T03:46:25.640Z,1012.74
2019-02-16T03:47:25.608Z,1012.77
2019-02-16T03:48:25.592Z,1012.71
2019-02-16T03:49:25.584Z,1012.71
2019-02-16T03:50:25.567Z,1012.74
2019-02-16T03:51:25.563Z,1012.69
2019-02-16T03:52:25.612Z,1012.67
2019-02-16T03:53:25.548Z,1012.63
2019-02-16T03:54:25.527Z,1012.62
2019-02-16T03:55:25.508Z,1012.66
2019-02-16T03:56:25.509Z,1012.64
2019-02-16T03:57:25.510Z,1012.61
2019-02-16T03:58:25.484Z,1012.69
2019-02-16T03:59:25.481Z,1012.68
2019-02-16T04:00:25.457Z,1012.71
2019-02-16T04:01:25.452Z,1012.73
2019-02-16T04:02:25.434Z,1012.73
2019-02-16T04:03:25.444Z,1012.73
2019-02-16T04:04:25.411Z,1012.75
2019-02-16T04:05:25.396Z,1012.72
2019-02-16T04:06:25.389Z,1012.74
2019-02-16T04:07:25.380Z,1012.76
2019-02-16T04:08:25.367Z,1012.72
2019-02-16T04:09:25.405Z,1012.71
2019-02-16T04:10:25.352Z,1012.72
2019-02-16T04:11:25.338Z,1012.69
2019-02-16T04:12:25.322Z,1012.66
2019-02-16T04:13:25.309Z,1012.70
2019-02-16T04:14:25.299Z,1012.64
2019-02-16T04:15:25.299Z,1012.62
2019-02-16T04:16:25.268Z,1012.61
2019-02-16T04:17:25.256Z,1012.62
2019-02-16T04:18:25.246Z,1012.63
2019-02-16T04:19:25.235Z,1012.56
2019-02-16T04:20:25.250Z,1012.61
2019-02-16T04:21:25.214Z,1012.60
2019-02-16T04:22:25.234Z,1012.63
2019-02-16T04:23:25.205Z,1012.61
2019-02-16T04:24:25.188Z,1012.65
2019-02-16T04:25:25.180Z,1012.65
2019-02-16T04:26:25.172Z,1012.55
2019-02-16T04:27:25.156Z,1012.57
2019-02-16T04:28:25.135Z,1012.60
2019-02-16T04:29:25.124Z,1012.58
2019-02-16T04:30:25.103Z,1012.63
2019-02-16T04:31:25.111Z,1012.59
2019-02-16T04:32:25.086Z,1012.59
2019-02-16T04:33:25.078Z,1012.55
2019-02-16T04:34:25.102Z,1012.56
2019-02-16T04:35:25.062Z,1012.56
2019-02-16T04:36:25.065Z,1012.55
2019-02-16T04:37:25.032Z,1012.57
2019-02-16T04:38:25.019Z,1012.51
2019-02-16T04:39:25.010Z,1012.53
2019-02-16T04:40:24.994Z,1012.49
2019-02-16T04:41:24.986Z,1012.54
2019-02-16T04:42:24.995Z,1012.57
2019-02-16T04:43:24.967Z,1012.55
2019-02-16T04:44:24.954Z,1012.62
2019-02-16T04:45:24.943Z,1012.58
2019-02-16T04:46:24.930Z,1012.54
2019-02-16T04:47:24.915Z,1012.61
2019-02-16T04:48:24.923Z,1012.50
2019-02-16T04:49:24.922Z,1012.51
2019-02-16T04:50:24.890Z,1012.56
2019-02-16T04:51:24.879Z,1012.54
2019-02-16T04:52:33.989Z,1012.55
2019-02-16T04:53:25.847Z,1012.58
2019-02-16T04:54:24.879Z,1012.52
2019-02-16T04:55:24.851Z,1012.56
2019-02-16T04:56:24.819Z,1012.53
2019-02-16T04:57:24.808Z,1012.50
2019-02-16T04:58:24.800Z,1012.53
2019-02-16T04:59:24.785Z,1012.53
2019-02-16T05:00:24.799Z,1012.50
2019-02-16T05:01:24.770Z,1012.53
2019-02-16T05:02:24.751Z,1012.57
2019-02-16T05:03:24.749Z,1012.53
2019-02-16T05:04:24.749Z,1012.49
2019-02-16T05:05:24.716Z,1012.51
2019-02-16T05:06:24.722Z,1012.52
2019-02-16T05:07:24.698Z,1012.47
2019-02-16T05:08:24.685Z,1012.47
2019-02-16T05:09:24.675Z,1012.49
2019-02-16T05:10:24.668Z,1012.47
2019-02-16T05:11:24.665Z,1012.61
2019-02-16T05:12:24.640Z,1012.58
2019-02-16T05:13:24.627Z,1012.57
2019-02-16T05:14:24.621Z,1012.59
2019-02-16T05:15:24.612Z,1012.57
2019-02-16T05:16:24.600Z,1012.56
2019-02-16T05:17:24.616Z,1012.56
2019-02-16T05:18:24.576Z,1012.55
2019-02-16T05:19:24.568Z,1012.55
2019-02-16T05:20:24.558Z,1012.51
2019-02-16T05:21:24.540Z,1012.54
2019-02-16T05:22:24.531Z,1012.52
2019-02-16T05:23:24.533Z,1012.54
2019-02-16T05:24:24.525Z,1012.50
2019-02-16T05:25:24.501Z,1012.49
2019-02-16T05:26:24.542Z,1012.51
2019-02-16T05:27:24.472Z,1012.44
2019-02-16T05:28:24.480Z,1012.48
2019-02-16T05:29:24.470Z,1012.43
2019-02-16T05:30:24.447Z,1012.44
2019-02-16T05:31:24.432Z,1012.48
2019-02-16T05:32:24.419Z,1012.50
2019-02-16T05:33:24.413Z,1012.49
2019-02-16T05:34:24.416Z,1012.47
2019-02-16T05:35:24.384Z,1012.53
2019-02-16T05:36:24.376Z,1012.46
2019-02-16T05:37:24.363Z,1012.47
2019-02-16T05:38:24.353Z,1012.50
2019-02-16T05:39:24.344Z,1012.47
2019-02-16T05:40:24.338Z,1012.49
2019-02-16T05:41:24.332Z,1012.44
2019-02-16T05:42:24.309Z,1012.42
2019-02-16T05:43:24.299Z,1012.43
2019-02-16T05:44:24.287Z,1012.41
2019-02-16T05:45:24.275Z,1012.48
2019-02-16T05:46:24.767Z,1012.48
2019-02-16T05:47:24.250Z,1012.51
2019-02-16T05:48:24.258Z,1012.54
2019-02-16T05:49:24.234Z,1012.50
2019-02-16T05:50:24.220Z,1012.50
2019-02-16T05:51:24.212Z,1012.56
2019-02-16T05:52:24.202Z,1012.46
2019-02-16T05:53:24.187Z,1012.46
2019-02-16T05:54:24.195Z,1012.50
2019-02-16T05:55:24.166Z,1012.45
2019-02-16T05:56:24.152Z,1012.42
2019-02-16T05:57:24.144Z,1012.43
2019-02-16T05:58:24.133Z,1012.41
2019-02-16T05:59:24.123Z,1012.39
2019-02-16T06:00:24.127Z,1012.35
2019-02-16T06:01:24.096Z,1012.35
2019-02-16T06:02:24.086Z,1012.34
2019-02-16T06:03:24.100Z,1012.38
2019-02-16T06:04:24.068Z,1012.42
2019-02-16T06:05:24.053Z,1012.39
2019-02-16T06:06:24.042Z,1012.36
2019-02-16T06:07:24.037Z,1012.43
2019-02-16T06:08:24.022Z,1012.45
2019-02-16T06:09:24.029Z,1012.45
2019-02-16T06:10:23.996Z,1012.46
2019-02-16T06:11:23.988Z,1012.44
2019-02-16T06:12:23.979Z,1012.45
2019-02-16T06:13:23.963Z,1012.51
2019-02-16T06:14:23.954Z,1012.51
2019-02-16T06:15:23.959Z,1012.40
2019-02-16T06:16:23.935Z,1012.43
2019-02-16T06:17:23.919Z,1012.45
2019-02-16T06:18:23.919Z,1012.42
2019-02-16T06:19:23.902Z,1012.34
2019-02-16T06:20:23.916Z,1012.30
2019-02-16T06:21:23.879Z,1012.36
2019-02-16T06:22:23.863Z,1012.35
2019-02-16T06:23:23.855Z,1012.29
2019-02-16T06:24:23.850Z,1012.36
2019-02-16T06:25:23.832Z,1012.45
2019-02-16T06:26:23.830Z,1012.47
2019-02-16T06:27:23.810Z,1012.46
2019-02-16T06:28:23.799Z,1012.50
2019-02-16T06:29:23.791Z,1012.51
2019-02-16T06:30:23.784Z,1012.53
2019-02-16T06:31:23.782Z,1012.52
2019-02-16T06:32:23.759Z,1012.55
2019-02-16T06:33:23.763Z,1012.58
2019-02-16T06:34:23.732Z,1012.59
2019-02-16T06:35:23.722Z,1012.55
2019-02-16T06:36:23.706Z,1012.53
2019-02-16T06:37:23.699Z,1012.53
2019-02-16T06:38:23.690Z,1012.53
2019-02-16T06:39:23.687Z,1012.59
2019-02-16T06:40:23.682Z,1012.56
2019-02-16T06:41:23.660Z,1012.52
2019-02-16T06:42:23.643Z,1012.56
2019-02-16T06:43:23.651Z,1012.58
2019-02-16T06:44:23.621Z,1012.58
2019-02-16T06:45:23.613Z,1012.53
2019-02-16T06:46:23.602Z,1012.58
2019-02-16T06:47:23.603Z,1012.58
2019-02-16T06:48:23.578Z,1012.59
2019-02-16T06:49:23.579Z,1012.60
2019-02-16T06:50:23.558Z,1012.60
2019-02-16T06:51:23.546Z,1012.65
2019-02-16T06:52:23.535Z,1012.65
2019-02-16T06:53:23.521Z,1012.67
2019-02-16T06:54:23.511Z,1012.70
2019-02-16T06:55:23.515Z,1012.70
2019-02-16T06:56:23.503Z,1012.71
2019-02-16T06:57:23.478Z,1012.74
2019-02-16T06:58:23.481Z,1012.75
2019-02-16T06:59:23.459Z,1012.77
2019-02-16T07:00:23.444Z,1012.75
2019-02-16T07:01:23.434Z,1012.80
2019-02-16T07:02:23.431Z,1012.76
2019-02-16T07:03:23.411Z,1012.81
2019-02-16T07:04:23.403Z,1012.81
2019-02-16T07:05:23.403Z,1012.76
2019-02-16T07:06:23.379Z,1012.84
2019-02-16T07:07:23.370Z,1012.77
2019-02-16T07:08:23.373Z,1012.81
2019-02-16T07:09:23.351Z,1012.82
2019-02-16T07:10:23.336Z,1012.74
2019-02-16T07:11:23.323Z,1012.75
2019-02-16T07:12:23.312Z,1012.76
2019-02-16T07:13:23.319Z,1012.77
2019-02-16T07:14:23.290Z,1012.75
2019-02-16T07:15:23.279Z,1012.78
2019-02-16T07:16:23.267Z,1012.75
2019-02-16T07:17:23.264Z,1012.80
2019-02-16T07:18:23.250Z,1012.82
2019-02-16T07:19:23.243Z,1012.81
2019-02-16T07:20:23.231Z,1012.83
2019-02-16T07:21:23.215Z,1012.82
2019-02-16T07:22:23.202Z,1012.81
2019-02-16T07:23:23.193Z,1012.82
2019-02-16T07:24:23.204Z,1012.86
2019-02-16T07:25:23.171Z,1012.83
2019-02-16T07:26:23.161Z,1012.87
2019-02-16T07:27:23.145Z,1012.83
2019-02-16T07:28:23.147Z,1012.87
2019-02-16T07:29:23.127Z,1012.93
2019-02-16T07:30:23.142Z,1012.91
2019-02-16T07:31:23.100Z,1012.90
2019-02-16T07:32:23.095Z,1012.94
2019-02-16T07:33:23.083Z,1012.90
2019-02-16T07:34:23.068Z,1012.98
2019-02-16T07:35:23.056Z,1012.98
2019-02-16T07:36:23.072Z,1013.01
2019-02-16T07:37:23.043Z,1013.00
2019-02-16T07:38:23.026Z,1012.93
2019-02-16T07:39:23.018Z,1012.94
2019-02-16T07:40:23.003Z,1012.94
2019-02-16T07:41:22.993Z,1012.91
2019-02-16T07:42:22.999Z,1012.86
2019-02-16T07:43:22.975Z,1012.89
2019-02-16T07:44:22.960Z,1012.85
2019-02-16T07:45:22.955Z,1012.87
2019-02-16T07:46:22.944Z,1012.91
2019-02-16T07:47:22.934Z,1012.89
2019-02-16T07:48:22.939Z,1012.92
2019-02-16T07:49:23.267Z,1012.89
2019-02-16T07:50:22.894Z,1012.91
2019-02-16T07:51:22.882Z,1012.92
2019-02-16T07:52:22.875Z,1012.91
2019-02-16T07:53:30.981Z,1012.95
2019-02-16T07:54:23.867Z,1012.98
2019-02-16T07:55:22.851Z,1012.97
2019-02-16T07:56:22.826Z,1012.93
2019-02-16T07:57:22.814Z,1012.95
2019-02-16T07:58:22.802Z,1012.99
2019-02-16T07:59:22.791Z,1013.02
2019-02-16T08:00:22.802Z,1013.07
2019-02-16T08:01:22.783Z,1013.13
2019-02-16T08:02:22.763Z,1013.14
2019-02-16T08:03:22.750Z,1013.08
2019-02-16T08:04:22.752Z,1013.07
2019-02-16T08:05:22.731Z,1013.07
2019-02-16T08:06:22.724Z,1013.09
2019-02-16T08:07:22.719Z,1013.08
2019-02-16T08:08:22.694Z,1013.09
2019-02-16T08:09:22.682Z,1013.07
2019-02-16T08:10:22.671Z,1013.11
2019-02-16T08:11:22.674Z,1013.07
2019-02-16T08:12:22.670Z,1013.04
2019-02-16T08:13:22.639Z,1013.06
2019-02-16T08:14:22.626Z,1013.04
2019-02-16T08:15:22.617Z,1013.00
2019-02-16T08:16:22.605Z,1012.98
2019-02-16T08:17:22.906Z,1013.08
2019-02-16T08:18:22.602Z,1013.08
2019-02-16T08:19:23.110Z,1013.08
2019-02-16T08:20:22.562Z,1013.05
2019-02-16T08:21:22.546Z,1013.03
2019-02-16T08:22:22.539Z,1013.02
2019-02-16T08:23:22.524Z,1013.07
2019-02-16T08:24:22.538Z,1013.06
2019-02-16T08:25:22.510Z,1013.04
2019-02-16T08:26:22.504Z,1013.04
2019-02-16T08:27:22.478Z,1013.03
2019-02-16T08:28:22.472Z,1013.06
2019-02-16T08:29:22.459Z,1013.03
2019-02-16T08:30:22.469Z,1013.08
2019-02-16T08:31:22.437Z,1013.05
2019-02-16T08:32:22.425Z,1013.12
2019-02-16T08:33:22.413Z,1013.08
2019-02-16T08:34:22.401Z,1013.10
2019-02-16T08:35:22.413Z,1013.07
2019-02-16T08:36:22.385Z,1013.15
2019-02-16T08:37:22.370Z,1013.13
2019-02-16T08:38:22.362Z,1013.12
2019-02-16T08:39:22.349Z,1013.14
2019-02-16T08:40:22.343Z,1013.04
2019-02-16T08:41:22.365Z,1013.05
2019-02-16T08:42:22.317Z,1013.07
2019-02-16T08:43:22.305Z,1013.07
2019-02-16T08:44:22.293Z,1013.06
2019-02-16T08:45:22.281Z,1013.05
2019-02-16T08:46:22.286Z,1013.05
2019-02-16T08:47:22.270Z,1013.02
2019-02-16T08:48:22.253Z,1012.99
2019-02-16T08:49:22.241Z,1012.97
2019-02-16T08:50:22.226Z,1012.94
2019-02-16T08:51:22.217Z,1012.98
2019-02-16T08:52:22.240Z,1012.96
2019-02-16T08:53:22.229Z,1012.97
2019-02-16T08:54:22.185Z,1012.94
2019-02-16T08:55:22.169Z,1012.94
2019-02-16T08:56:22.157Z,1012.96
2019-02-16T08:57:22.149Z,1012.97
2019-02-16T08:58:22.137Z,1012.97
2019-02-16T08:59:22.137Z,1012.98
2019-02-16T09:00:22.114Z,1012.97
2019-02-16T09:01:22.101Z,1013.00
2019-02-16T09:02:22.093Z,1013.01
2019-02-16T09:03:22.105Z,1012.97
2019-02-16T09:04:22.101Z,1012.98
2019-02-16T09:05:22.058Z,1013.00
2019-02-16T09:06:22.045Z,1012.96
2019-02-16T09:07:22.040Z,1012.98
2019-02-16T09:08:22.025Z,1012.90
2019-02-16T09:09:22.010Z,1012.94
2019-02-16T09:10:22.025Z,1012.90
2019-02-16T09:11:21.986Z,1012.88
2019-02-16T09:12:21.978Z,1013.01
2019-02-16T09:13:21.969Z,1012.93
2019-02-16T09:14:21.954Z,1012.94
2019-02-16T09:15:21.945Z,1012.89
2019-02-16T09:16:21.954Z,1012.88
2019-02-16T09:17:21.925Z,1012.89
2019-02-16T09:18:21.915Z,1012.87
2019-02-16T09:19:21.897Z,1012.83
2019-02-16T09:20:21.893Z,1012.85
2019-02-16T09:21:21.881Z,1012.85
2019-02-16T09:22:21.885Z,1012.89
2019-02-16T09:23:21.877Z,1012.83
2019-02-16T09:24:21.848Z,1012.83
2019-02-16T09:25:21.839Z,1012.92
2019-02-16T09:26:21.825Z,1012.86
2019-02-16T09:27:21.809Z,1012.90
2019-02-16T09:28:21.801Z,1012.92
2019-02-16T09:29:21.801Z,1012.92
2019-02-16T09:30:21.842Z,1012.93
2019-02-16T09:31:21.773Z,1012.95
2019-02-16T09:32:21.761Z,1012.95
2019-02-16T09:33:21.748Z,1012.88
2019-02-16T09:34:21.761Z,1012.92
2019-02-16T09:35:21.724Z,1012.93
2019-02-16T09:36:21.713Z,1012.90
2019-02-16T09:37:21.702Z,1012.88
2019-02-16T09:38:21.690Z,1012.92
2019-02-16T09:39:21.686Z,1012.91
2019-02-16T09:40:21.686Z,1012.82
2019-02-16T09:41:21.665Z,1012.91
2019-02-16T09:42:21.646Z,1012.90
2019-02-16T09:43:21.638Z,1012.89
2019-02-16T09:44:21.630Z,1012.92
2019-02-16T09:45:21.614Z,1012.97
2019-02-16T09:46:21.619Z,1012.92
2019-02-16T09:47:21.594Z,1012.92
2019-02-16T09:48:21.579Z,1012.94
2019-02-16T09:49:21.570Z,1012.94
2019-02-16T09:50:21.558Z,1012.95
2019-02-16T09:51:21.562Z,1013.02
2019-02-16T09:52:21.542Z,1012.96
2019-02-16T09:53:21.534Z,1012.98
2019-02-16T09:54:21.522Z,1012.97
2019-02-16T09:55:21.518Z,1012.98
2019-02-16T09:56:21.490Z,1012.98
2019-02-16T09:57:21.486Z,1013.00
2019-02-16T09:58:21.470Z,1012.97
2019-02-16T09:59:21.462Z,1012.99
2019-02-16T10:00:21.453Z,1012.92
2019-02-16T10:01:21.454Z,1012.91
2019-02-16T10:02:21.433Z,1012.92
2019-02-16T10:03:21.416Z,1012.95
2019-02-16T10:04:29.463Z,1012.90
2019-02-16T10:05:21.398Z,1012.98
2019-02-16T10:06:21.382Z,1013.03
2019-02-16T10:07:21.382Z,1013.02
2019-02-16T10:08:21.358Z,1013.00
2019-02-16T10:09:21.351Z,1013.03
2019-02-16T10:10:21.338Z,1013.08
2019-02-16T10:11:21.346Z,1013.00
2019-02-16T10:12:21.326Z,1012.99
2019-02-16T10:13:21.314Z,1013.02
2019-02-16T10:14:21.306Z,1013.05
2019-02-16T10:15:21.278Z,1013.00
2019-02-16T10:16:21.275Z,1012.99
2019-02-16T10:17:21.255Z,1013.01
2019-02-16T10:18:21.271Z,1013.02
2019-02-16T10:19:28.789Z,1013.04
2019-02-16T10:20:21.227Z,1013.08
2019-02-16T10:21:21.210Z,1013.07
2019-02-16T10:22:21.202Z,1013.14
2019-02-16T10:23:21.191Z,1013.13
2019-02-16T10:24:21.190Z,1013.20
2019-02-16T10:25:21.166Z,1013.20
2019-02-16T10:26:21.154Z,1013.19
2019-02-16T10:27:21.143Z,1013.15
2019-02-16T10:28:21.141Z,1013.20
2019-02-16T10:29:21.175Z,1013.20
2019-02-16T10:30:21.110Z,1013.16
2019-02-16T10:31:21.094Z,1013.10
2019-02-16T10:32:21.088Z,1013.18
2019-02-16T10:33:21.086Z,1013.16
2019-02-16T10:34:21.082Z,1013.14
2019-02-16T10:35:21.055Z,1013.12
2019-02-16T10:36:21.083Z,1013.10
2019-02-16T10:37:21.030Z,1013.15
2019-02-16T10:38:21.019Z,1013.08
2019-02-16T10:39:21.012Z,1013.10
2019-02-16T10:40:21.018Z,1013.09
2019-02-16T10:41:20.986Z,1013.08
2019-02-16T10:42:20.978Z,1013.11
2019-02-16T10:43:20.969Z,1013.06
2019-02-16T10:44:20.954Z,1013.09
2019-02-16T10:45:20.943Z,1013.09
2019-02-16T10:46:20.950Z,1013.09
2019-02-16T10:47:21.025Z,1013.09
2019-02-16T10:48:27.950Z,1013.11
2019-02-16T10:49:20.898Z,1013.17
2019-02-16T10:50:20.942Z,1013.15
2019-02-16T10:51:20.874Z,1013.16
2019-02-16T10:52:20.884Z,1013.14
2019-02-16T10:53:20.854Z,1013.16
2019-02-16T10:54:27.029Z,1013.19
2019-02-16T10:55:21.830Z,1013.12
2019-02-16T10:56:27.875Z,1013.11
2019-02-16T10:57:20.806Z,1013.07
2019-02-16T10:58:20.816Z,1013.07
2019-02-16T10:59:20.808Z,1013.05
2019-02-16T11:00:20.775Z,1013.08
2019-02-16T11:01:20.762Z,1013.03
2019-02-16T11:02:20.750Z,1013.03
2019-02-16T11:03:20.768Z,1013.07
2019-02-16T11:04:20.738Z,1013.05
2019-02-16T11:05:20.722Z,1013.02
2019-02-16T11:06:20.702Z,1012.99
2019-02-16T11:07:20.694Z,1013.01
2019-02-16T11:08:20.684Z,1013.11
2019-02-16T11:09:20.684Z,1013.10
2019-02-16T11:10:20.670Z,1013.05
2019-02-16T11:11:20.650Z,1013.09
2019-02-16T11:12:20.637Z,1013.01
2019-02-16T11:13:20.626Z,1013.05
2019-02-16T11:14:20.642Z,1013.04
2019-02-16T11:15:20.606Z,1013.06
2019-02-16T11:16:20.598Z,1013.11
2019-02-16T11:17:20.578Z,1013.07
2019-02-16T11:18:20.574Z,1013.09
2019-02-16T11:19:20.562Z,1013.13
2019-02-16T11:20:20.570Z,1013.09
2019-02-16T11:21:20.540Z,1013.11
2019-02-16T11:22:20.525Z,1013.06
2019-02-16T11:23:20.523Z,1013.11
2019-02-16T11:24:20.509Z,1013.09
2019-02-16T11:25:20.494Z,1013.05
2019-02-16T11:26:20.512Z,1013.09
2019-02-16T11:27:20.473Z,1013.10
2019-02-16T11:28:20.461Z,1013.07
2019-02-16T11:29:20.448Z,1013.07
2019-02-16T11:30:20.441Z,1013.07
2019-02-16T11:31:20.437Z,1013.01
2019-02-16T11:32:20.417Z,1013.02
2019-02-16T11:33:20.402Z,1013.01
2019-02-16T11:34:20.397Z,1013.03
2019-02-16T11:35:20.384Z,1013.02
2019-02-16T11:36:20.374Z,1012.98
2019-02-16T11:37:20.373Z,1012.99
2019-02-16T11:38:20.348Z,1013.04
2019-02-16T11:39:20.336Z,1013.09
2019-02-16T11:40:20.325Z,1013.06
2019-02-16T11:41:20.313Z,1013.06
2019-02-16T11:42:20.332Z,1013.06
2019-02-16T11:43:20.292Z,1013.09
2019-02-16T11:44:20.292Z,1013.04
2019-02-16T11:45:20.293Z,1013.07
2019-02-16T11:46:20.261Z,1013.05
2019-02-16T11:47:20.249Z,1013.05
2019-02-16T11:48:20.249Z,1013.05
2019-02-16T11:49:20.229Z,1013.03
2019-02-16T11:50:20.217Z,1013.08
2019-02-16T11:51:20.202Z,1013.05
2019-02-16T11:52:20.189Z,1013.06
2019-02-16T11:53:20.198Z,1013.00
2019-02-16T11:54:20.197Z,1013.00
2019-02-16T11:55:20.157Z,1012.94
2019-02-16T11:56:20.149Z,1012.93
2019-02-16T11:57:20.139Z,1012.89
2019-02-16T11:58:20.128Z,1012.94
2019-02-16T11:59:20.113Z,1012.92
2019-02-16T12:00:20.121Z,1012.92
2019-02-16T12:01:20.093Z,1012.93
2019-02-16T12:02:20.136Z,1012.88
2019-02-16T12:03:20.069Z,1012.92
2019-02-16T12:04:20.057Z,1012.84
2019-02-16T12:05:20.067Z,1012.95
2019-02-16T12:06:20.033Z,1012.96